KMKN

Details ICAO KMKN
Name COMANCHE CO CITY
Region United States
Timezone America/Chicago (UTC-5.0)
Plans Departing 5
Arriving 5
Stats Elevation 1,388 ft / 423 m (AMSL)
Location 31.916806° -98.601736°
Runways 2
Magnetic Variation 4.296° E
Sunrise 2018-05-22 11:34:34 UTC / 2018-05-22 06:34:34 Local
Sunset 2018-05-23 01:30:29 UTC / 2018-05-22 20:30:29 Local
Advertisement - Login to hide

Runways

ID Width Length Bearing (true) Bearing (mag) Surface Threshold Offset Overrun Length
13 100 ft / 30 m 2,232 ft / 680 m 132.93° 128.63° Grass 0 ft / 0 m 0 ft / 0 m
17 75 ft / 23 m 4,561 ft / 1,390 m 180.00° 175.70° Asphalt 0 ft / 0 m 0 ft / 0 m
31 100 ft / 30 m 2,232 ft / 680 m 312.93° 308.63° Grass 0 ft / 0 m 0 ft / 0 m
35 75 ft / 23 m 4,561 ft / 1,390 m 0.00° 355.70° Asphalt 0 ft / 0 m 0 ft / 0 m

Map

Weather


0- 5 10 15 20 25 30 35+ Temperature / ° C

Clouds and Precipitation
Forecast for 2018-05-22 12:00 UTC. Updated an hour ago

Ground ~20,000 ft ~40,000 ft Winds

METAR

KMKN 221015Z AUTO 00000KT 10SM CLR 18/18 A3000 RMK AO2 T01830183

TAF

Not found

Frequencies

Recorded 118.57 MHz AWOS 3
Unicom 122.80 MHz CTAF/UNICOM
Warning: Do not use this data for real-world aviation or navigation. No guarantee of current accuracy is given.